createdAt,value
2023-05-21T00:01:16.582Z,94164.34
2023-05-21T00:03:46.123Z,94182.13
2023-05-21T00:06:13.935Z,94182.94
2023-05-21T00:08:40.822Z,94184.69
2023-05-21T00:11:07.792Z,94182.16
2023-05-21T00:13:34.637Z,94170.44
2023-05-21T00:16:01.406Z,94153.59
2023-05-21T00:18:28.370Z,94156.53
2023-05-21T00:20:55.110Z,94165.22
2023-05-21T00:23:21.849Z,94169.31
2023-05-21T00:25:48.628Z,94163.81
2023-05-21T00:28:15.456Z,94163.97
2023-05-21T00:30:43.221Z,94159.19
2023-05-21T00:33:10.715Z,94155.31
2023-05-21T00:35:37.702Z,94153.34
2023-05-21T00:38:04.584Z,94154.72
2023-05-21T00:40:31.507Z,94145.34
2023-05-21T00:42:58.323Z,94152.34
2023-05-21T00:45:25.743Z,94152.34
2023-05-21T00:47:54.876Z,94155.19
2023-05-21T00:50:23.111Z,94151.59
2023-05-21T00:52:50.376Z,94145.28
2023-05-21T00:55:17.280Z,94138.97
2023-05-21T00:57:44.104Z,94133.03
2023-05-21T01:00:12.079Z,94137.69
2023-05-21T01:02:39.019Z,94137.75
2023-05-21T01:05:06.904Z,94144.66
2023-05-21T01:07:35.274Z,94145.44
2023-05-21T01:10:04.474Z,94143.53
2023-05-21T01:12:32.420Z,94130.91
2023-05-21T01:15:09.064Z,94143.72
2023-05-21T01:17:35.977Z,94147.59
2023-05-21T01:20:10.165Z,94142.03
2023-05-21T01:22:39.752Z,94137.84
2023-05-21T01:25:06.956Z,94129.22
2023-05-21T01:27:33.726Z,94134.69
2023-05-21T01:30:00.467Z,94133.41
2023-05-21T01:32:34.439Z,94150.34
2023-05-21T01:35:05.736Z,94141.84
2023-05-21T01:37:55.365Z,94112.72
2023-05-21T01:40:27.309Z,94133.94
2023-05-21T01:42:54.375Z,94138.19
2023-05-21T01:45:22.856Z,94132.19
2023-05-21T01:47:50.724Z,94128.00
2023-05-21T01:50:18.755Z,94121.44
2023-05-21T01:52:50.609Z,94128.09
2023-05-21T01:55:17.669Z,94126.50
2023-05-21T01:57:44.494Z,94126.34
2023-05-21T02:00:12.486Z,94116.44
2023-05-21T02:02:39.367Z,94120.81
2023-05-21T02:05:06.785Z,94116.16
2023-05-21T02:07:33.946Z,94110.63
2023-05-21T02:10:00.810Z,94111.09
2023-05-21T02:12:28.410Z,94103.03
2023-05-21T02:14:56.498Z,94110.84
2023-05-21T02:17:24.440Z,94099.41
2023-05-21T02:19:51.304Z,94096.81
2023-05-21T02:22:18.251Z,94104.09
2023-05-21T02:24:45.531Z,94107.53
2023-05-21T02:27:13.861Z,94091.88
2023-05-21T02:29:40.680Z,94099.97
2023-05-21T02:32:07.900Z,94100.31
2023-05-21T02:34:37.446Z,94104.72
2023-05-21T02:37:04.341Z,94098.16
2023-05-21T02:39:31.124Z,94084.38
2023-05-21T02:41:57.867Z,94095.44
2023-05-21T02:44:24.709Z,94088.91
2023-05-21T02:46:51.572Z,94092.84
2023-05-21T02:49:18.350Z,94082.53
2023-05-21T02:51:45.069Z,94088.66
2023-05-21T02:54:11.829Z,94088.00
2023-05-21T02:56:38.660Z,94091.41
2023-05-21T02:59:05.458Z,94087.78
2023-05-21T03:01:32.271Z,94075.66
2023-05-21T03:03:59.116Z,94055.06
2023-05-21T03:06:26.228Z,94064.09
2023-05-21T03:08:53.087Z,94078.00
2023-05-21T03:11:20.788Z,94079.75
2023-05-21T03:13:47.664Z,94083.69
2023-05-21T03:16:14.494Z,94085.41
2023-05-21T03:18:41.502Z,94093.84
2023-05-21T03:21:08.308Z,94095.44
2023-05-21T03:23:35.107Z,94090.56
2023-05-21T03:26:02.491Z,94087.28
2023-05-21T03:28:29.221Z,94082.50
2023-05-21T03:30:56.062Z,94084.78
2023-05-21T03:33:23.273Z,94079.56
2023-05-21T03:35:50.047Z,94067.00
2023-05-21T03:38:16.798Z,94072.78
2023-05-21T03:40:43.809Z,94074.81
2023-05-21T03:43:10.578Z,94090.84
2023-05-21T03:45:37.709Z,94086.16
2023-05-21T03:48:05.214Z,94075.72
2023-05-21T03:50:32.089Z,94072.66
2023-05-21T03:52:58.868Z,94068.25
2023-05-21T03:55:25.653Z,94070.19
2023-05-21T03:57:52.464Z,94082.06
2023-05-21T04:00:19.217Z,94088.78
2023-05-21T04:02:46.125Z,94088.13
2023-05-21T04:05:12.873Z,94085.16
2023-05-21T04:07:39.922Z,94085.28
2023-05-21T04:10:07.420Z,94076.09
2023-05-21T04:12:34.191Z,94078.50
2023-05-21T04:15:02.649Z,94083.69
2023-05-21T04:17:29.506Z,94080.97
2023-05-21T04:19:56.297Z,94084.00
2023-05-21T04:22:23.525Z,94082.19
2023-05-21T04:24:50.645Z,94082.69
2023-05-21T04:27:17.379Z,94088.75
2023-05-21T04:29:44.159Z,94093.97
2023-05-21T04:32:11.812Z,94093.81
2023-05-21T04:34:39.769Z,94089.94
2023-05-21T04:37:07.116Z,94091.25
2023-05-21T04:39:34.997Z,94092.16
2023-05-21T04:42:03.281Z,94081.88
2023-05-21T04:44:30.443Z,94085.50
2023-05-21T04:46:57.636Z,94083.69
2023-05-21T04:49:24.562Z,94093.78
2023-05-21T04:51:51.358Z,94088.09
2023-05-21T04:54:18.134Z,94095.53
2023-05-21T04:56:45.011Z,94081.53
2023-05-21T04:59:11.860Z,94087.53
2023-05-21T05:01:38.762Z,94095.06
2023-05-21T05:04:06.121Z,94093.06
2023-05-21T05:06:32.990Z,94090.00
2023-05-21T05:08:59.760Z,94095.75
2023-05-21T05:11:26.892Z,94093.84
2023-05-21T05:13:53.669Z,94092.22
2023-05-21T05:16:25.307Z,94093.84
2023-05-21T05:18:52.937Z,94092.91
2023-05-21T05:21:21.897Z,94096.56
2023-05-21T05:23:48.654Z,94102.53
2023-05-21T05:26:15.349Z,94075.75
2023-05-21T05:28:42.184Z,94087.88
2023-05-21T05:31:09.061Z,94084.72
2023-05-21T05:33:36.002Z,94091.44
2023-05-21T05:36:02.721Z,94090.75
2023-05-21T05:38:29.496Z,94094.59
2023-05-21T05:40:56.363Z,94088.00
2023-05-21T05:43:24.499Z,94096.28
2023-05-21T05:45:51.395Z,94096.72
2023-05-21T05:48:18.317Z,94087.84
2023-05-21T05:50:45.941Z,94085.47
2023-05-21T05:53:13.491Z,94086.50
2023-05-21T05:55:41.419Z,94073.31
2023-05-21T05:58:08.221Z,94093.03
2023-05-21T06:00:34.900Z,94091.63
2023-05-21T06:03:02.041Z,94086.00
2023-05-21T06:05:28.849Z,94090.41
2023-05-21T06:07:55.712Z,94092.81
2023-05-21T06:10:22.489Z,94085.50
2023-05-21T06:12:49.393Z,94090.13
2023-05-21T06:15:16.712Z,94089.22
2023-05-21T06:17:43.531Z,94084.66
2023-05-21T06:20:10.548Z,94078.97
2023-05-21T06:22:37.457Z,94084.25
2023-05-21T06:25:05.037Z,94077.47
2023-05-21T06:27:32.214Z,94074.47
2023-05-21T06:29:59.024Z,94075.19
2023-05-21T06:32:25.941Z,94069.97
2023-05-21T06:34:52.684Z,94077.81
2023-05-21T06:37:21.258Z,94073.50
2023-05-21T06:39:48.218Z,94071.31
2023-05-21T06:42:15.247Z,94078.78
2023-05-21T06:44:42.231Z,94089.66
2023-05-21T06:47:08.955Z,94083.38
2023-05-21T06:49:35.748Z,94084.69
2023-05-21T06:52:02.575Z,94082.06
2023-05-21T06:54:29.466Z,94082.06
2023-05-21T06:56:56.236Z,94081.53
2023-05-21T06:59:23.012Z,94092.31
2023-05-21T07:01:49.872Z,94089.44
2023-05-21T07:04:16.675Z,94086.00
2023-05-21T07:06:43.486Z,94094.13
2023-05-21T07:09:10.507Z,94091.78
2023-05-21T07:11:37.370Z,94090.47
2023-05-21T07:14:04.256Z,94087.31
2023-05-21T07:16:31.114Z,94086.00
2023-05-21T07:18:58.019Z,94084.41
2023-05-21T07:21:24.836Z,94089.16
2023-05-21T07:23:51.620Z,94090.22
2023-05-21T07:26:18.573Z,94085.22
2023-05-21T07:28:45.437Z,94087.34
2023-05-21T07:31:15.185Z,94086.25
2023-05-21T07:33:42.094Z,94085.75
2023-05-21T07:36:09.048Z,94098.34
2023-05-21T07:38:35.880Z,94092.56
2023-05-21T07:41:02.719Z,94088.63
2023-05-21T07:43:29.519Z,94094.69
2023-05-21T07:45:56.457Z,94099.94
2023-05-21T07:48:23.352Z,94096.53
2023-05-21T07:50:52.825Z,94101.50
2023-05-21T07:53:20.077Z,94093.03
2023-05-21T07:55:50.078Z,94095.34
2023-05-21T07:58:18.406Z,94095.78
2023-05-21T08:00:47.119Z,94094.41
2023-05-21T08:03:16.587Z,94097.84
2023-05-21T08:05:50.862Z,94102.53
2023-05-21T08:08:18.833Z,94093.00
2023-05-21T08:10:46.634Z,94088.16
2023-05-21T08:13:13.595Z,94084.59
2023-05-21T08:15:40.425Z,94085.56
2023-05-21T08:18:07.436Z,94073.25
2023-05-21T08:20:34.415Z,94078.28
2023-05-21T08:23:01.438Z,94075.97
2023-05-21T08:25:28.272Z,94080.94
2023-05-21T08:27:55.352Z,94078.56
2023-05-21T08:30:22.153Z,94078.97
2023-05-21T08:32:49.523Z,94074.22
2023-05-21T08:35:16.684Z,94077.84
2023-05-21T08:37:43.627Z,94076.59
2023-05-21T08:40:11.560Z,94083.88
2023-05-21T08:42:48.898Z,94073.38
2023-05-21T08:45:20.912Z,94076.78
2023-05-21T08:47:48.522Z,94075.28
2023-05-21T08:50:19.651Z,94072.13
2023-05-21T08:52:46.564Z,94067.13
2023-05-21T08:55:13.446Z,94075.75
2023-05-21T08:57:43.360Z,94074.47
2023-05-21T09:00:11.914Z,94073.81
2023-05-21T09:02:40.873Z,94074.31
2023-05-21T09:05:09.371Z,94075.19
2023-05-21T09:08:15.503Z,94070.19
2023-05-21T09:10:52.658Z,94070.22
2023-05-21T09:13:20.208Z,94068.06
2023-05-21T09:15:47.752Z,94062.56
2023-05-21T09:18:14.954Z,94055.91
2023-05-21T09:20:42.201Z,94058.81
2023-05-21T09:23:12.613Z,94057.16
2023-05-21T09:25:39.832Z,94054.16
2023-05-21T09:28:13.184Z,94058.59
2023-05-21T09:30:53.576Z,94055.59
2023-05-21T09:33:29.575Z,94054.13
2023-05-21T09:35:56.732Z,94059.72
2023-05-21T09:38:24.251Z,94062.75
2023-05-21T09:40:51.207Z,94068.41
2023-05-21T09:43:18.194Z,94063.22
2023-05-21T09:45:53.256Z,94074.91
2023-05-21T09:48:35.331Z,94067.47
2023-05-21T09:51:28.522Z,94066.31
2023-05-21T09:53:59.585Z,94071.50
2023-05-21T09:56:29.513Z,94059.94
2023-05-21T09:58:57.580Z,94058.66
2023-05-21T10:01:25.123Z,94059.69
2023-05-21T10:03:57.408Z,94066.13
2023-05-21T10:06:29.787Z,94063.59
2023-05-21T10:08:57.816Z,94058.19
2023-05-21T10:11:27.347Z,94062.31
2023-05-21T10:14:07.700Z,94061.31
2023-05-21T10:16:36.619Z,94063.28
2023-05-21T10:19:04.905Z,94055.16
2023-05-21T10:21:33.556Z,94065.38
2023-05-21T10:24:01.576Z,94067.78
2023-05-21T10:26:28.716Z,94057.16
2023-05-21T10:28:57.344Z,94065.69
2023-05-21T10:31:25.114Z,94056.31
2023-05-21T10:33:53.630Z,94055.28
2023-05-21T10:36:20.768Z,94052.53
2023-05-21T10:38:47.862Z,94063.28
2023-05-21T10:41:16.413Z,94050.84
2023-05-21T10:43:52.152Z,94043.94
2023-05-21T10:46:37.822Z,94045.22
2023-05-21T10:49:10.417Z,94049.41
2023-05-21T10:51:55.679Z,94050.94
2023-05-21T10:54:59.734Z,94037.78
2023-05-21T10:57:48.341Z,94033.25
2023-05-21T11:00:16.504Z,94047.34
2023-05-21T11:02:43.489Z,94045.81
2023-05-21T11:05:10.336Z,94035.63
2023-05-21T11:07:58.842Z,94034.19
2023-05-21T11:10:41.173Z,94037.34
2023-05-21T11:13:17.169Z,94034.94
2023-05-21T11:15:59.346Z,94041.50
2023-05-21T11:18:35.331Z,94037.91
2023-05-21T11:21:06.323Z,94039.78
2023-05-21T11:24:06.493Z,94046.78
2023-05-21T11:26:48.799Z,94039.06
2023-05-21T11:29:16.194Z,94034.06
2023-05-21T11:31:49.618Z,94036.38
2023-05-21T11:34:28.967Z,94043.34
2023-05-21T11:37:37.357Z,94028.41
2023-05-21T11:40:18.962Z,94026.59
2023-05-21T11:42:50.433Z,94026.84
2023-05-21T11:45:21.811Z,94025.34
2023-05-21T11:47:49.854Z,94015.94
2023-05-21T11:50:17.252Z,94007.34
2023-05-21T11:52:44.785Z,94006.41
2023-05-21T11:55:11.749Z,94005.22
2023-05-21T11:57:41.915Z,93998.66
2023-05-21T12:00:14.772Z,94015.84
2023-05-21T12:02:46.609Z,94023.91
2023-05-21T12:05:13.507Z,94015.16
2023-05-21T12:07:40.419Z,94009.16
2023-05-21T12:10:08.152Z,94022.34
2023-05-21T12:12:46.084Z,94009.56
2023-05-21T12:15:20.819Z,94009.34
2023-05-21T12:17:51.307Z,94009.28
2023-05-21T12:20:18.065Z,94005.38
2023-05-21T12:22:44.939Z,94018.53
2023-05-21T12:25:12.471Z,94018.56
2023-05-21T12:27:39.717Z,94021.28
2023-05-21T12:30:07.133Z,94023.03
2023-05-21T12:32:34.024Z,94017.00
2023-05-21T12:35:01.014Z,94013.91
2023-05-21T12:37:32.605Z,94015.13
2023-05-21T12:40:01.433Z,94023.19
2023-05-21T12:42:40.295Z,94020.91
2023-05-21T12:45:08.135Z,94026.84
2023-05-21T12:47:35.414Z,94032.72
2023-05-21T12:50:04.328Z,94035.31
2023-05-21T12:52:31.203Z,94038.63
2023-05-21T12:54:58.176Z,94026.22
2023-05-21T12:57:37.036Z,94021.09
2023-05-21T13:00:06.891Z,94017.22
2023-05-21T13:02:44.408Z,94009.66
2023-05-21T13:05:17.685Z,94011.41
2023-05-21T13:07:47.177Z,94008.47
2023-05-21T13:10:17.087Z,94000.69
2023-05-21T13:12:45.357Z,93990.81
2023-05-21T13:15:12.531Z,93985.38
2023-05-21T13:17:39.361Z,93995.78
2023-05-21T13:20:16.858Z,93997.28
2023-05-21T13:22:47.048Z,93994.22
2023-05-21T13:25:19.677Z,93995.16
2023-05-21T13:27:47.535Z,93995.56
2023-05-21T13:30:14.573Z,93995.28
2023-05-21T13:32:42.424Z,93990.38
2023-05-21T13:35:10.251Z,93991.88
2023-05-21T13:37:37.304Z,93992.03
2023-05-21T13:40:05.997Z,93988.97
2023-05-21T13:42:33.427Z,93986.16
2023-05-21T13:45:00.227Z,93986.63
2023-05-21T13:47:27.029Z,93991.59
2023-05-21T13:49:53.816Z,93985.66
2023-05-21T13:52:21.591Z,93976.28
2023-05-21T13:54:48.361Z,93979.63
2023-05-21T13:57:15.731Z,93986.66
2023-05-21T13:59:42.526Z,93986.81
2023-05-21T14:02:10.487Z,93988.78
2023-05-21T14:04:39.263Z,93987.78
2023-05-21T14:07:06.766Z,93989.38
2023-05-21T14:09:33.681Z,93984.88
2023-05-21T14:12:01.567Z,93989.91
2023-05-21T14:14:28.373Z,93985.75
2023-05-21T14:16:55.252Z,93981.44
2023-05-21T14:19:22.268Z,93979.09
2023-05-21T14:21:51.921Z,93978.38
2023-05-21T14:24:19.151Z,93971.75
2023-05-21T14:26:46.230Z,93966.56
2023-05-21T14:29:12.975Z,93958.53
2023-05-21T14:31:39.845Z,93961.88
2023-05-21T14:34:09.692Z,93954.00
2023-05-21T14:36:36.673Z,93956.00
2023-05-21T14:39:04.091Z,93964.44
2023-05-21T14:41:30.967Z,93954.59
2023-05-21T14:43:57.749Z,93954.59
2023-05-21T14:46:24.798Z,93965.84
2023-05-21T14:48:51.775Z,93954.59
2023-05-21T14:51:19.379Z,93960.63
2023-05-21T14:53:46.129Z,93971.50
2023-05-21T14:56:12.966Z,93965.53
2023-05-21T14:58:39.820Z,93972.09
2023-05-21T15:01:06.760Z,93970.25
2023-05-21T15:03:33.797Z,93963.06
2023-05-21T15:06:00.720Z,93967.25
2023-05-21T15:08:27.668Z,93960.16
2023-05-21T15:10:54.508Z,93964.06
2023-05-21T15:13:21.610Z,93961.41
2023-05-21T15:15:49.926Z,93955.94
2023-05-21T15:18:16.749Z,93961.56
2023-05-21T15:20:43.792Z,93963.44
2023-05-21T15:23:16.861Z,93944.66
2023-05-21T15:25:45.475Z,93953.47
2023-05-21T15:28:12.646Z,93948.06
2023-05-21T15:30:39.935Z,93945.06
2023-05-21T15:33:06.764Z,93941.19
2023-05-21T15:35:35.193Z,93939.06
2023-05-21T15:38:02.193Z,93941.84
2023-05-21T15:40:29.024Z,93935.97
2023-05-21T15:42:56.000Z,93941.13
2023-05-21T15:45:22.783Z,93941.66
2023-05-21T15:47:49.861Z,93929.31
2023-05-21T15:50:17.467Z,93929.31
2023-05-21T15:52:44.324Z,93926.50
2023-05-21T15:55:11.333Z,93926.16
2023-05-21T15:57:38.147Z,93927.28
2023-05-21T16:00:05.546Z,93927.97
2023-05-21T16:02:32.485Z,93923.78
2023-05-21T16:04:59.451Z,93925.34
2023-05-21T16:07:26.392Z,93923.69
2023-05-21T16:09:53.347Z,93926.94
2023-05-21T16:12:20.165Z,93920.91
2023-05-21T16:14:50.132Z,93918.31
2023-05-21T16:17:18.132Z,93924.59
2023-05-21T16:19:45.015Z,93924.47
2023-05-21T16:22:12.028Z,93922.06
2023-05-21T16:24:38.887Z,93922.81
2023-05-21T16:27:06.021Z,93910.66
2023-05-21T16:29:32.865Z,93915.84
2023-05-21T16:31:59.714Z,93923.38
2023-05-21T16:34:26.484Z,93926.94
2023-05-21T16:36:53.299Z,93922.78
2023-05-21T16:39:20.200Z,93931.84
2023-05-21T16:41:47.044Z,93933.03
2023-05-21T16:44:14.723Z,93930.34
2023-05-21T16:46:41.610Z,93936.22
2023-05-21T16:49:08.594Z,93937.81
2023-05-21T16:51:35.563Z,93931.31
2023-05-21T16:54:04.375Z,93934.94
2023-05-21T16:56:31.374Z,93937.63
2023-05-21T16:58:58.252Z,93941.94
2023-05-21T17:01:25.118Z,93943.06
2023-05-21T17:03:52.190Z,93941.19
2023-05-21T17:06:19.034Z,93943.31
2023-05-21T17:08:46.110Z,93935.50
2023-05-21T17:11:13.279Z,93939.31
2023-05-21T17:13:40.154Z,93937.53
2023-05-21T17:16:07.108Z,93937.25
2023-05-21T17:18:34.046Z,93939.88
2023-05-21T17:21:00.868Z,93952.81
2023-05-21T17:23:27.641Z,93948.97
2023-05-21T17:25:54.437Z,93947.78
2023-05-21T17:28:21.406Z,93950.97
2023-05-21T17:30:49.584Z,93953.16
2023-05-21T17:33:16.834Z,93952.34
2023-05-21T17:35:44.097Z,93950.53
2023-05-21T17:38:10.888Z,93955.66
2023-05-21T17:40:37.813Z,93958.19
2023-05-21T17:43:05.270Z,93957.31
2023-05-21T17:45:32.281Z,93956.59
2023-05-21T17:48:00.449Z,93960.78
2023-05-21T17:50:28.044Z,93957.97
2023-05-21T17:52:55.009Z,93971.72
2023-05-21T17:55:21.849Z,93962.19
2023-05-21T17:57:48.961Z,93963.59
2023-05-21T18:00:16.030Z,93969.50
2023-05-21T18:02:42.913Z,93974.88
2023-05-21T18:05:09.780Z,93970.56
2023-05-21T18:07:37.499Z,93984.06
2023-05-21T18:10:04.830Z,93975.47
2023-05-21T18:12:31.568Z,93976.56
2023-05-21T18:14:58.409Z,93977.31
2023-05-21T18:17:25.203Z,93977.56
2023-05-21T18:19:52.075Z,93984.78
2023-05-21T18:22:18.872Z,93989.28
2023-05-21T18:24:46.386Z,93979.56
2023-05-21T18:27:13.653Z,93981.72
2023-05-21T18:29:40.582Z,93990.38
2023-05-21T18:32:08.009Z,93984.34
2023-05-21T18:34:35.081Z,93980.63
2023-05-21T18:37:03.335Z,93987.19
2023-05-21T18:39:30.622Z,93992.19
2023-05-21T18:44:27.508Z,93992.44
2023-05-21T18:46:55.172Z,93986.94
2023-05-21T18:49:23.840Z,93984.59
2023-05-21T18:51:50.686Z,93998.22
2023-05-21T18:54:17.543Z,93998.50
2023-05-21T18:56:44.927Z,94004.06
2023-05-21T18:59:11.710Z,93996.72
2023-05-21T19:01:39.030Z,94008.53
2023-05-21T19:04:06.246Z,94006.41
2023-05-21T19:06:33.140Z,94015.34
2023-05-21T19:09:00.144Z,94011.94
2023-05-21T19:11:31.139Z,94018.50
2023-05-21T19:13:59.254Z,94024.53
2023-05-21T19:16:26.114Z,94022.19
2023-05-21T19:18:53.056Z,94026.63
2023-05-21T19:21:19.903Z,94027.94
2023-05-21T19:23:53.230Z,94031.38
2023-05-21T19:26:22.627Z,94043.97
2023-05-21T19:28:53.684Z,94037.66
2023-05-21T19:31:21.679Z,94035.31
2023-05-21T19:33:48.971Z,94042.09
2023-05-21T19:36:16.134Z,94047.88
2023-05-21T19:38:48.368Z,94055.47
2023-05-21T19:41:18.771Z,94053.91
2023-05-21T19:43:46.157Z,94057.84
2023-05-21T19:46:13.685Z,94068.28
2023-05-21T19:48:41.556Z,94056.19
2023-05-21T19:51:08.514Z,94059.06
2023-05-21T19:53:35.406Z,94064.03
2023-05-21T19:56:02.509Z,94061.91
2023-05-21T19:58:30.485Z,94067.13
2023-05-21T20:00:59.398Z,94065.56
2023-05-21T20:03:26.937Z,94074.16
2023-05-21T20:05:54.181Z,94074.19
2023-05-21T20:08:21.384Z,94072.25
2023-05-21T20:10:51.464Z,94080.88
2023-05-21T20:13:18.685Z,94072.75
2023-05-21T20:15:45.770Z,94083.13
2023-05-21T20:18:13.027Z,94085.19
2023-05-21T20:20:41.540Z,94089.84
2023-05-21T20:23:08.709Z,94088.00
2023-05-21T20:25:35.483Z,94083.41
2023-05-21T20:28:03.192Z,94090.22
2023-05-21T20:30:34.242Z,94091.84
2023-05-21T20:33:04.064Z,94086.69
2023-05-21T20:35:30.927Z,94094.97
2023-05-21T20:37:57.951Z,94103.81
2023-05-21T20:40:24.848Z,94107.41
2023-05-21T20:42:53.590Z,94103.69
2023-05-21T20:45:21.180Z,94111.97
2023-05-21T20:47:50.168Z,94114.59
2023-05-21T20:50:18.025Z,94110.75
2023-05-21T20:52:47.255Z,94111.22
2023-05-21T20:55:14.864Z,94116.41
2023-05-21T20:57:42.355Z,94115.97
2023-05-21T21:00:11.893Z,94117.00
2023-05-21T21:02:39.010Z,94112.72
2023-05-21T21:05:06.462Z,94116.13
2023-05-21T21:07:34.407Z,94123.69
2023-05-21T21:10:01.607Z,94117.69
2023-05-21T21:12:29.977Z,94124.88
2023-05-21T21:14:56.863Z,94119.16
2023-05-21T21:17:23.862Z,94107.69
2023-05-21T21:19:50.779Z,94117.78
2023-05-21T21:22:18.479Z,94121.75
2023-05-21T21:24:45.910Z,94117.53
2023-05-21T21:27:12.810Z,94125.25
2023-05-21T21:29:39.823Z,94127.44
2023-05-21T21:32:07.054Z,94127.38
2023-05-21T21:34:33.871Z,94134.47
2023-05-21T21:37:00.741Z,94136.78
2023-05-21T21:39:27.488Z,94127.78
2023-05-21T21:41:54.336Z,94130.84
2023-05-21T21:44:21.104Z,94125.84
2023-05-21T21:46:47.947Z,94120.69
2023-05-21T21:49:17.468Z,94129.13
2023-05-21T21:51:44.764Z,94124.00
2023-05-21T21:54:11.790Z,94127.13
2023-05-21T21:56:38.672Z,94121.34
2023-05-21T21:59:05.772Z,94124.44
2023-05-21T22:01:32.686Z,94123.19
2023-05-21T22:03:59.706Z,94121.00
2023-05-21T22:06:27.715Z,94120.78
2023-05-21T22:08:54.704Z,94127.25
2023-05-21T22:11:22.105Z,94125.53
2023-05-21T22:13:49.196Z,94121.94
2023-05-21T22:16:16.055Z,94119.44
2023-05-21T22:18:43.049Z,94117.63
2023-05-21T22:21:11.011Z,94110.47
2023-05-21T22:23:38.822Z,94122.97
2023-05-21T22:26:06.469Z,94125.13
2023-05-21T22:28:33.271Z,94120.03
2023-05-21T22:31:00.113Z,94115.84
2023-05-21T22:33:27.003Z,94107.75
2023-05-21T22:35:54.649Z,94118.50
2023-05-21T22:38:21.628Z,94108.69
2023-05-21T22:40:48.413Z,94125.56
2023-05-21T22:43:15.274Z,94123.88
2023-05-21T22:45:42.346Z,94120.81
2023-05-21T22:48:09.780Z,94123.50
2023-05-21T22:50:38.629Z,94125.84
2023-05-21T22:53:06.426Z,94124.28
2023-05-21T22:55:33.275Z,94122.44
2023-05-21T22:58:00.137Z,94120.88
2023-05-21T23:00:26.907Z,94123.16
2023-05-21T23:02:54.727Z,94124.91
2023-05-21T23:05:22.044Z,94119.47
2023-05-21T23:07:49.135Z,94117.88
2023-05-21T23:10:16.101Z,94120.03
2023-05-21T23:12:42.887Z,94116.97
2023-05-21T23:15:10.973Z,94116.50
2023-05-21T23:17:38.366Z,94120.59
2023-05-21T23:20:07.501Z,94110.75
2023-05-21T23:22:34.921Z,94114.19
2023-05-21T23:25:02.088Z,94106.94
2023-05-21T23:27:29.421Z,94110.13
2023-05-21T23:29:56.541Z,94098.63
2023-05-21T23:32:23.847Z,94110.75
2023-05-21T23:34:50.896Z,94114.47
2023-05-21T23:37:17.855Z,94115.47
2023-05-21T23:39:48.355Z,94105.09
2023-05-21T23:42:18.719Z,94100.59
2023-05-21T23:44:45.646Z,94101.63
2023-05-21T23:47:12.514Z,94104.63
2023-05-21T23:49:39.719Z,94105.91
2023-05-21T23:52:07.121Z,94101.59
2023-05-21T23:54:34.089Z,94097.88
2023-05-21T23:57:01.066Z,94098.22
2023-05-21T23:59:27.875Z,94099.56
